createdAt,value
2023-02-16T00:01:54.760Z,87.28
2023-02-16T00:04:24.680Z,83.82
2023-02-16T00:06:51.888Z,79.95
2023-02-16T00:09:19.719Z,81.95
2023-02-16T00:12:06.133Z,79.35
2023-02-16T00:14:35.318Z,87.97
2023-02-16T00:17:02.930Z,87.13
2023-02-16T00:19:37.130Z,98.65
2023-02-16T00:22:05.368Z,92.78
2023-02-16T00:24:32.610Z,102.60
2023-02-16T00:27:01.071Z,99.13
2023-02-16T00:29:37.749Z,80.97
2023-02-16T00:32:06.287Z,86.93
2023-02-16T00:34:41.423Z,83.03
2023-02-16T00:37:13.218Z,96.45
2023-02-16T00:39:41.390Z,92.13
2023-02-16T00:42:18.579Z,99.88
2023-02-16T00:44:48.269Z,111.60
2023-02-16T00:47:37.310Z,103.40
2023-02-16T00:50:14.182Z,110.70
2023-02-16T00:52:44.111Z,110.45
2023-02-16T00:55:16.952Z,118.05
2023-02-16T00:57:51.852Z,115.15
2023-02-16T01:00:25.631Z,120.97
2023-02-16T01:02:55.448Z,118.20
2023-02-16T01:05:22.761Z,111.50
2023-02-16T01:08:08.052Z,119.63
2023-02-16T01:10:54.680Z,122.28
2023-02-16T01:13:22.640Z,115.60
2023-02-16T01:15:49.365Z,114.85
2023-02-16T01:18:18.300Z,116.80
2023-02-16T01:20:45.638Z,115.55
2023-02-16T01:23:14.328Z,106.90
2023-02-16T01:25:41.643Z,107.35
2023-02-16T01:28:23.611Z,95.95
2023-02-16T01:30:51.868Z,100.43
2023-02-16T01:33:19.830Z,94.43
2023-02-16T01:35:46.904Z,100.35
2023-02-16T01:38:18.915Z,109.00
2023-02-16T01:40:53.528Z,100.18
2023-02-16T01:46:02.030Z,102.40
2023-02-16T01:48:30.483Z,105.22
2023-02-16T01:51:12.086Z,116.88
2023-02-16T01:53:47.509Z,118.95
2023-02-16T01:56:32.696Z,109.50
2023-02-16T01:59:08.960Z,110.13
2023-02-16T02:01:41.242Z,118.75
2023-02-16T02:07:15.603Z,105.55
2023-02-16T02:09:50.142Z,109.85
2023-02-16T02:12:44.832Z,113.15
2023-02-16T02:15:14.203Z,117.65
2023-02-16T02:17:42.069Z,116.07
2023-02-16T02:20:11.519Z,120.38
2023-02-16T02:23:18.719Z,113.90
2023-02-16T02:26:22.949Z,107.72
2023-02-16T02:29:07.912Z,120.60
2023-02-16T02:31:52.750Z,182.48
2023-02-16T02:34:55.015Z,134.00
2023-02-16T02:37:32.113Z,120.93
2023-02-16T02:40:34.993Z,116.07
2023-02-16T02:43:16.615Z,118.28
2023-02-16T02:45:59.663Z,115.35
2023-02-16T02:48:33.024Z,112.57
2023-02-16T02:51:21.808Z,110.45
2023-02-16T02:54:14.104Z,115.63
2023-02-16T02:57:06.096Z,110.20
2023-02-16T02:59:53.461Z,122.40
2023-02-16T03:02:24.288Z,115.35
2023-02-16T03:04:53.751Z,115.72
2023-02-16T03:07:43.745Z,105.15
2023-02-16T03:10:29.320Z,111.97
2023-02-16T03:12:58.518Z,119.85
2023-02-16T03:15:26.528Z,121.30
2023-02-16T03:18:14.853Z,117.38
2023-02-16T03:21:02.565Z,112.15
2023-02-16T03:23:48.041Z,114.80
2023-02-16T03:26:33.924Z,113.43
2023-02-16T03:29:21.446Z,114.20
2023-02-16T03:31:49.436Z,117.13
2023-02-16T03:34:17.824Z,98.57
2023-02-16T03:36:48.631Z,110.60
2023-02-16T03:39:15.889Z,107.75
2023-02-16T03:41:47.794Z,112.75
2023-02-16T03:44:14.754Z,123.57
2023-02-16T03:46:41.639Z,105.88
2023-02-16T03:49:08.524Z,117.53
2023-02-16T03:51:35.236Z,98.50
2023-02-16T03:54:01.820Z,101.05
2023-02-16T03:56:28.447Z,94.68
2023-02-16T03:58:55.001Z,94.78
2023-02-16T04:01:21.621Z,95.97
2023-02-16T04:03:48.709Z,111.05
2023-02-16T04:06:15.437Z,90.35
2023-02-16T04:08:42.067Z,97.53
2023-02-16T04:11:27.133Z,94.50
2023-02-16T04:13:53.894Z,99.22
2023-02-16T04:16:20.534Z,93.00
2023-02-16T04:18:47.195Z,87.30
2023-02-16T04:21:14.384Z,100.15
2023-02-16T04:23:41.172Z,102.47
2023-02-16T04:26:07.829Z,108.03
2023-02-16T04:28:34.436Z,106.68
2023-02-16T04:31:01.237Z,151.30
2023-02-16T04:33:28.045Z,214.48
2023-02-16T04:35:54.703Z,156.23
2023-02-16T04:38:21.261Z,182.57
2023-02-16T04:40:47.864Z,265.13
2023-02-16T04:43:14.487Z,295.52
2023-02-16T04:45:41.370Z,258.80
2023-02-16T04:48:08.040Z,205.85
2023-02-16T04:50:34.744Z,217.38
2023-02-16T04:53:01.505Z,199.23
2023-02-16T04:55:28.246Z,152.90
2023-02-16T04:57:54.818Z,140.88
2023-02-16T05:00:21.876Z,128.63
2023-02-16T05:02:48.572Z,120.78
2023-02-16T05:05:15.236Z,106.53
2023-02-16T05:07:41.825Z,119.45
2023-02-16T05:10:09.204Z,113.78
2023-02-16T05:12:54.510Z,108.00
2023-02-16T05:15:21.198Z,114.38
2023-02-16T05:17:47.940Z,133.30
2023-02-16T05:20:14.756Z,135.93
2023-02-16T05:22:41.501Z,141.93
2023-02-16T05:25:08.159Z,141.23
2023-02-16T05:27:35.516Z,136.88
2023-02-16T05:30:02.255Z,138.20
2023-02-16T05:32:28.989Z,144.90
2023-02-16T05:34:55.647Z,134.85
2023-02-16T05:37:22.364Z,132.00
2023-02-16T05:39:49.075Z,131.63
2023-02-16T05:42:15.842Z,135.00
2023-02-16T05:44:42.475Z,126.70
2023-02-16T05:47:09.271Z,111.80
2023-02-16T05:49:36.180Z,108.68
2023-02-16T05:52:03.092Z,108.07
2023-02-16T05:54:29.927Z,110.00
2023-02-16T05:56:56.564Z,122.53
2023-02-16T05:59:23.477Z,106.45
2023-02-16T06:01:52.219Z,103.15
2023-02-16T06:04:20.394Z,94.57
2023-02-16T06:06:47.266Z,84.47
2023-02-16T06:09:13.866Z,88.07
2023-02-16T06:11:40.771Z,74.35
2023-02-16T06:14:14.303Z,60.30
2023-02-16T06:16:43.341Z,61.80
2023-02-16T06:19:10.560Z,57.65
2023-02-16T06:21:38.566Z,60.83
2023-02-16T06:24:07.112Z,62.85
2023-02-16T06:26:34.102Z,67.57
2023-02-16T06:29:01.082Z,62.30
2023-02-16T06:31:28.213Z,67.88
2023-02-16T06:33:56.838Z,75.05
2023-02-16T06:36:24.502Z,65.55
2023-02-16T06:38:51.140Z,53.35
2023-02-16T06:41:31.485Z,61.72
2023-02-16T06:43:59.825Z,56.17
2023-02-16T06:46:26.951Z,52.17
2023-02-16T06:48:54.228Z,54.53
2023-02-16T06:51:21.369Z,54.25
2023-02-16T06:53:48.068Z,71.13
2023-02-16T06:56:14.762Z,64.05
2023-02-16T06:58:41.722Z,64.90
2023-02-16T07:01:08.506Z,64.18
2023-02-16T07:03:35.401Z,69.10
2023-02-16T07:06:02.391Z,75.90
2023-02-16T07:08:29.282Z,72.72
2023-02-16T07:10:56.017Z,82.95
2023-02-16T07:13:22.700Z,69.68
2023-02-16T07:15:49.455Z,71.57
2023-02-16T07:18:16.095Z,73.45
2023-02-16T07:20:42.746Z,84.53
2023-02-16T07:23:09.336Z,77.05
2023-02-16T07:25:37.070Z,74.07
2023-02-16T07:28:04.527Z,74.25
2023-02-16T07:30:31.305Z,85.07
2023-02-16T07:32:58.042Z,75.65
2023-02-16T07:35:25.776Z,81.20
2023-02-16T07:37:53.054Z,80.75
2023-02-16T07:40:19.817Z,80.30
2023-02-16T07:42:46.396Z,80.03
2023-02-16T07:45:13.030Z,82.85
2023-02-16T07:47:39.786Z,97.07
2023-02-16T07:50:07.031Z,83.25
2023-02-16T07:52:34.556Z,95.63
2023-02-16T07:55:01.290Z,94.25
2023-02-16T07:57:29.243Z,75.88
2023-02-16T07:59:56.581Z,75.18
2023-02-16T08:02:24.437Z,74.25
2023-02-16T08:04:53.961Z,69.88
2023-02-16T08:07:21.004Z,65.80
2023-02-16T08:09:47.652Z,78.88
2023-02-16T08:12:15.663Z,72.88
2023-02-16T08:14:42.783Z,76.22
2023-02-16T08:17:09.603Z,80.63
2023-02-16T08:19:39.529Z,81.32
2023-02-16T08:22:07.641Z,83.85
2023-02-16T08:24:34.987Z,88.50
2023-02-16T08:27:04.364Z,85.70
2023-02-16T08:29:32.215Z,87.93
2023-02-16T08:31:58.990Z,78.38
2023-02-16T08:34:26.433Z,82.13
2023-02-16T08:36:56.614Z,83.93
2023-02-16T08:39:30.017Z,83.78
2023-02-16T08:41:57.082Z,75.95
2023-02-16T08:44:25.403Z,86.85
2023-02-16T08:46:55.137Z,73.10
2023-02-16T08:49:23.785Z,80.28
2023-02-16T08:51:54.818Z,81.63
2023-02-16T08:54:26.588Z,81.18
2023-02-16T08:56:54.310Z,78.30
2023-02-16T08:59:22.358Z,78.53
2023-02-16T09:01:49.469Z,77.32
2023-02-16T09:04:19.156Z,95.82
2023-02-16T09:06:48.424Z,82.65
2023-02-16T09:09:16.081Z,86.00
2023-02-16T09:11:42.854Z,90.35
2023-02-16T09:14:10.514Z,88.10
2023-02-16T09:16:39.746Z,83.10
2023-02-16T09:19:07.134Z,82.55
2023-02-16T09:21:33.873Z,89.25
2023-02-16T09:24:03.611Z,80.53
2023-02-16T09:26:38.496Z,85.15
2023-02-16T09:29:07.126Z,75.53
2023-02-16T09:31:37.259Z,87.38
2023-02-16T09:34:14.359Z,85.63
2023-02-16T09:36:41.568Z,91.03
2023-02-16T09:39:08.290Z,86.38
2023-02-16T09:41:41.093Z,91.35
2023-02-16T09:44:46.746Z,76.43
2023-02-16T09:47:34.930Z,89.53
2023-02-16T09:50:13.171Z,74.57
2023-02-16T09:53:00.922Z,74.30
2023-02-16T09:55:46.501Z,74.03
2023-02-16T09:58:19.415Z,74.20
2023-02-16T10:01:03.017Z,67.00
2023-02-16T10:04:01.001Z,72.07
2023-02-16T10:06:50.517Z,63.25
2023-02-16T10:09:19.691Z,70.38
2023-02-16T10:12:22.336Z,80.32
2023-02-16T10:14:50.399Z,75.28
2023-02-16T10:17:24.020Z,67.05
2023-02-16T10:20:12.002Z,71.28
2023-02-16T10:23:09.455Z,80.25
2023-02-16T10:25:54.768Z,82.18
2023-02-16T10:28:46.408Z,85.97
2023-02-16T10:31:20.992Z,76.68
2023-02-16T10:34:15.258Z,79.15
2023-02-16T10:37:16.561Z,79.55
2023-02-16T10:39:46.885Z,78.15
2023-02-16T10:42:46.832Z,84.25
2023-02-16T10:45:27.286Z,75.63
2023-02-16T10:47:54.588Z,81.93
2023-02-16T10:50:33.351Z,82.43
2023-02-16T10:53:06.712Z,91.72
2023-02-16T10:55:33.334Z,75.25
2023-02-16T10:58:02.055Z,78.55
2023-02-16T11:00:51.895Z,75.07
2023-02-16T11:03:23.052Z,84.97
2023-02-16T11:05:49.648Z,86.55
2023-02-16T11:08:17.873Z,89.22
2023-02-16T11:10:49.065Z,88.43
2023-02-16T11:13:25.088Z,83.38
2023-02-16T11:15:58.324Z,83.53
2023-02-16T11:18:27.861Z,87.57
2023-02-16T11:20:55.338Z,85.13
2023-02-16T11:23:26.845Z,80.57
2023-02-16T11:26:00.584Z,91.07
2023-02-16T11:28:32.792Z,94.28
2023-02-16T11:33:28.873Z,85.22
2023-02-16T11:35:56.449Z,82.68
2023-02-16T11:38:35.586Z,90.95
2023-02-16T11:41:05.682Z,79.20
2023-02-16T11:43:36.465Z,76.05
2023-02-16T11:46:07.886Z,81.60
2023-02-16T11:48:34.715Z,74.63
2023-02-16T11:51:07.638Z,84.55
2023-02-16T11:53:37.398Z,83.63
2023-02-16T11:56:19.119Z,75.55
2023-02-16T11:58:45.886Z,74.50
2023-02-16T12:01:30.202Z,73.65
2023-02-16T12:04:23.066Z,70.63
2023-02-16T12:06:49.811Z,70.97
2023-02-16T12:09:23.628Z,73.10
2023-02-16T12:12:17.902Z,75.93
2023-02-16T12:15:03.530Z,73.30
2023-02-16T12:18:18.862Z,65.90
2023-02-16T12:20:54.863Z,71.28
2023-02-16T12:23:48.188Z,70.80
2023-02-16T12:26:48.929Z,69.03
2023-02-16T12:29:38.224Z,64.82
2023-02-16T12:32:32.770Z,73.00
2023-02-16T12:35:31.654Z,63.55
2023-02-16T12:38:19.809Z,71.10
2023-02-16T12:41:13.588Z,66.47
2023-02-16T12:43:48.741Z,67.57
2023-02-16T12:46:27.215Z,66.45
2023-02-16T12:49:01.210Z,66.30
2023-02-16T12:51:35.701Z,67.72
2023-02-16T12:54:16.421Z,62.80
2023-02-16T12:56:48.082Z,67.45
2023-02-16T12:59:26.358Z,72.40
2023-02-16T13:01:56.273Z,62.22
2023-02-16T13:04:50.737Z,55.15
2023-02-16T13:07:28.756Z,59.50
2023-02-16T13:10:02.074Z,60.63
2023-02-16T13:12:37.657Z,73.00
2023-02-16T13:15:21.391Z,58.15
2023-02-16T13:17:57.162Z,56.28
2023-02-16T13:20:25.250Z,53.67
2023-02-16T13:23:12.571Z,53.20
2023-02-16T13:25:54.576Z,49.38
2023-02-16T13:28:27.644Z,51.17
2023-02-16T13:31:15.429Z,54.03
2023-02-16T13:34:04.447Z,50.83
2023-02-16T13:36:59.338Z,56.60
2023-02-16T13:39:25.922Z,56.08
2023-02-16T13:42:13.165Z,50.97
2023-02-16T13:45:01.930Z,61.20
2023-02-16T13:47:37.647Z,47.65
2023-02-16T13:50:24.897Z,44.05
2023-02-16T13:52:53.257Z,46.28
2023-02-16T13:55:28.983Z,47.60
2023-02-16T13:58:21.819Z,34.50
2023-02-16T14:00:50.039Z,34.58
2023-02-16T14:03:16.715Z,34.90
2023-02-16T14:05:49.638Z,34.22
2023-02-16T14:08:19.488Z,32.47
2023-02-16T14:10:55.261Z,37.22
2023-02-16T14:13:52.974Z,37.28
2023-02-16T14:16:22.516Z,42.83
2023-02-16T14:19:23.707Z,30.70
2023-02-16T14:21:51.648Z,33.10
2023-02-16T14:24:33.382Z,38.28
2023-02-16T14:27:05.081Z,29.73
2023-02-16T14:29:34.890Z,27.52
2023-02-16T14:32:20.944Z,33.25
2023-02-16T14:35:22.035Z,25.70
2023-02-16T14:37:57.419Z,27.02
2023-02-16T14:40:51.984Z,25.27
2023-02-16T14:43:31.671Z,24.17
2023-02-16T14:46:14.009Z,25.48
2023-02-16T14:51:57.582Z,24.25
2023-02-16T14:54:37.624Z,27.52
2023-02-16T14:57:21.676Z,26.60
2023-02-16T14:59:51.078Z,37.72
2023-02-16T15:02:34.617Z,24.67
2023-02-16T15:05:19.453Z,33.83
2023-02-16T15:07:52.552Z,29.45
2023-02-16T15:10:27.057Z,22.33
2023-02-16T15:12:55.814Z,29.45
2023-02-16T15:15:31.523Z,32.45
2023-02-16T15:17:58.210Z,24.65
2023-02-16T15:20:35.444Z,31.90
2023-02-16T15:23:06.234Z,35.88
2023-02-16T15:25:40.787Z,29.92
2023-02-16T15:28:10.267Z,27.33
2023-02-16T15:30:41.369Z,34.53
2023-02-16T15:33:14.328Z,23.58
2023-02-16T15:35:43.773Z,34.08
2023-02-16T15:38:13.207Z,26.08
2023-02-16T15:40:40.407Z,20.08
2023-02-16T15:43:49.344Z,23.95
2023-02-16T15:46:16.987Z,25.73
2023-02-16T15:48:43.674Z,27.77
2023-02-16T15:51:13.732Z,27.52
2023-02-16T15:53:56.327Z,25.85
2023-02-16T15:56:46.216Z,30.88
2023-02-16T15:59:39.341Z,30.38
2023-02-16T16:02:20.787Z,34.67
2023-02-16T16:04:54.928Z,36.00
2023-02-16T16:07:32.104Z,43.38
2023-02-16T16:10:00.437Z,40.15
2023-02-16T16:12:28.734Z,40.88
2023-02-16T16:14:58.050Z,33.60
2023-02-16T16:17:34.345Z,33.53
2023-02-16T16:20:40.196Z,32.33
2023-02-16T16:23:26.042Z,43.80
2023-02-16T16:25:53.585Z,37.75
2023-02-16T16:28:27.136Z,41.42
2023-02-16T16:31:23.627Z,48.80
2023-02-16T16:33:59.421Z,47.30
2023-02-16T16:36:44.680Z,35.90
2023-02-16T16:39:17.334Z,40.10
2023-02-16T16:42:09.916Z,42.17
2023-02-16T16:44:40.394Z,45.85
2023-02-16T16:47:24.556Z,46.92
2023-02-16T16:50:10.172Z,46.60
2023-02-16T16:53:43.478Z,44.45
2023-02-16T16:58:42.202Z,52.88
2023-02-16T17:01:12.468Z,48.83
2023-02-16T17:03:39.135Z,44.35
2023-02-16T17:06:06.897Z,43.85
2023-02-16T17:08:33.819Z,40.45
2023-02-16T17:11:10.584Z,41.75
2023-02-16T17:13:37.204Z,49.13
2023-02-16T17:16:14.362Z,38.20
2023-02-16T17:18:41.230Z,36.80
2023-02-16T17:21:10.605Z,38.88
2023-02-16T17:23:45.187Z,32.90
2023-02-16T17:26:17.150Z,36.17
2023-02-16T17:28:43.931Z,48.80
2023-02-16T17:31:11.238Z,42.10
2023-02-16T17:33:38.057Z,42.10
2023-02-16T17:36:06.855Z,47.47
2023-02-16T17:38:34.589Z,57.00
2023-02-16T17:41:01.225Z,59.60
2023-02-16T17:43:31.413Z,59.40
2023-02-16T17:46:01.253Z,65.93
2023-02-16T17:48:30.476Z,71.15
2023-02-16T17:50:58.059Z,50.28
2023-02-16T17:53:26.180Z,59.67
2023-02-16T17:55:56.210Z,49.33
2023-02-16T17:58:24.338Z,59.72
2023-02-16T18:00:53.911Z,60.50
2023-02-16T18:03:22.922Z,71.57
2023-02-16T18:05:50.367Z,66.32
2023-02-16T18:08:18.660Z,55.80
2023-02-16T18:10:51.687Z,56.72
2023-02-16T18:13:19.268Z,45.00
2023-02-16T18:15:49.007Z,40.67
2023-02-16T18:18:17.814Z,40.78
2023-02-16T18:20:53.501Z,31.13
2023-02-16T18:26:14.682Z,42.83
2023-02-16T18:28:42.061Z,39.05
2023-02-16T18:31:09.860Z,38.05
2023-02-16T18:33:36.570Z,39.35
2023-02-16T18:36:05.249Z,39.28
2023-02-16T18:38:32.807Z,40.53
2023-02-16T18:43:49.487Z,41.13
2023-02-16T18:46:16.525Z,37.28
2023-02-16T18:48:59.756Z,38.67
2023-02-16T18:51:29.480Z,43.42
2023-02-16T18:53:57.711Z,51.03
2023-02-16T18:56:24.402Z,64.07
2023-02-16T18:58:53.891Z,61.05
2023-02-16T19:01:35.185Z,47.22
2023-02-16T19:04:03.224Z,49.38
2023-02-16T19:06:29.962Z,57.78
2023-02-16T19:08:58.500Z,80.93
2023-02-16T19:11:25.633Z,105.10
2023-02-16T19:13:52.287Z,72.72
2023-02-16T19:16:22.723Z,61.75
2023-02-16T19:18:49.376Z,75.10
2023-02-16T19:21:16.068Z,73.35
2023-02-16T19:23:43.431Z,66.03
2023-02-16T19:26:12.532Z,69.15
2023-02-16T19:28:54.530Z,70.05
2023-02-16T19:31:25.116Z,66.75
2023-02-16T19:33:52.572Z,76.22
2023-02-16T19:36:20.582Z,71.35
2023-02-16T19:38:47.941Z,78.25
2023-02-16T19:41:22.625Z,71.90
2023-02-16T19:43:49.647Z,73.30
2023-02-16T19:46:16.482Z,79.30
2023-02-16T19:48:43.704Z,98.00
2023-02-16T19:51:13.641Z,83.70
2023-02-16T19:53:42.435Z,55.63
2023-02-16T19:56:13.121Z,55.00
2023-02-16T19:58:39.768Z,62.88
2023-02-16T20:01:23.392Z,66.05
2023-02-16T20:03:51.715Z,50.08
2023-02-16T20:06:28.189Z,54.13
2023-02-16T20:08:56.114Z,52.15
2023-02-16T20:11:25.810Z,42.83
2023-02-16T20:13:55.972Z,53.08
2023-02-16T20:16:22.970Z,46.72
2023-02-16T20:18:51.932Z,77.78
2023-02-16T20:21:26.681Z,59.80
2023-02-16T20:23:56.609Z,55.22
2023-02-16T20:26:31.399Z,55.50
2023-02-16T20:28:59.861Z,57.60
2023-02-16T20:31:30.924Z,62.50
2023-02-16T20:33:59.273Z,42.47
2023-02-16T20:36:26.444Z,47.78
2023-02-16T20:38:53.419Z,59.38
2023-02-16T20:41:20.828Z,55.58
2023-02-16T20:43:47.897Z,47.25
2023-02-16T20:46:15.678Z,52.63
2023-02-16T20:48:51.275Z,59.33
2023-02-16T20:51:18.796Z,51.47
2023-02-16T20:53:45.855Z,40.38
2023-02-16T20:56:16.792Z,41.08
2023-02-16T20:58:48.254Z,38.65
2023-02-16T21:01:23.919Z,44.07
2023-02-16T21:03:52.660Z,94.78
2023-02-16T21:06:19.560Z,59.22
2023-02-16T21:08:46.496Z,40.05
2023-02-16T21:11:18.322Z,33.70
2023-02-16T21:13:45.454Z,33.85
2023-02-16T21:16:14.251Z,36.28
2023-02-16T21:18:41.109Z,45.58
2023-02-16T21:21:09.047Z,48.83
2023-02-16T21:23:36.420Z,79.78
2023-02-16T21:26:05.712Z,57.20
2023-02-16T21:28:33.143Z,43.42
2023-02-16T21:31:09.997Z,55.20
2023-02-16T21:33:38.380Z,43.08
2023-02-16T21:36:14.077Z,44.90
2023-02-16T21:38:42.317Z,50.13
2023-02-16T21:41:26.310Z,51.22
2023-02-16T21:44:03.276Z,55.35
2023-02-16T21:46:36.070Z,51.25
2023-02-16T21:49:04.106Z,54.05
2023-02-16T21:51:33.772Z,52.95
2023-02-16T21:54:00.469Z,48.15
2023-02-16T21:56:37.615Z,43.45
2023-02-16T21:59:06.800Z,43.13
2023-02-16T22:01:37.355Z,44.75
2023-02-16T22:04:04.946Z,43.72
2023-02-16T22:06:38.404Z,43.55
2023-02-16T22:09:08.042Z,44.13
2023-02-16T22:11:34.964Z,48.35
2023-02-16T22:14:02.368Z,48.38
2023-02-16T22:16:31.191Z,55.47
2023-02-16T22:19:07.253Z,48.35
2023-02-16T22:21:41.896Z,46.58
2023-02-16T22:24:14.066Z,44.08
2023-02-16T22:26:41.888Z,45.38
2023-02-16T22:29:08.846Z,48.25
2023-02-16T22:31:36.577Z,51.63
2023-02-16T22:34:06.413Z,90.97
2023-02-16T22:36:33.911Z,61.42
2023-02-16T22:39:00.616Z,83.25
2023-02-16T22:41:27.502Z,91.97
2023-02-16T22:43:55.646Z,93.05
2023-02-16T22:46:26.469Z,186.23
2023-02-16T22:48:58.634Z,125.20
2023-02-16T22:53:55.115Z,67.22
2023-02-16T22:56:21.855Z,77.45
2023-02-16T22:58:48.853Z,66.00
2023-02-16T23:01:21.101Z,69.88
2023-02-16T23:06:18.767Z,67.05
2023-02-16T23:08:47.149Z,58.72
2023-02-16T23:11:14.058Z,61.00
2023-02-16T23:13:40.730Z,59.13
2023-02-16T23:16:11.647Z,52.40
2023-02-16T23:18:38.719Z,57.35
2023-02-16T23:21:09.223Z,48.70
2023-02-16T23:23:36.961Z,50.85
2023-02-16T23:26:06.453Z,47.90
2023-02-16T23:28:34.356Z,52.72
2023-02-16T23:31:01.476Z,47.85
2023-02-16T23:33:28.194Z,54.50
2023-02-16T23:35:55.091Z,49.22
2023-02-16T23:38:21.981Z,49.75
2023-02-16T23:40:58.567Z,55.50
2023-02-16T23:43:25.476Z,44.83
2023-02-16T23:45:52.720Z,47.58
2023-02-16T23:48:19.467Z,52.92
2023-02-16T23:50:46.637Z,53.25
2023-02-16T23:53:13.516Z,51.53
2023-02-16T23:55:40.188Z,55.53
2023-02-16T23:58:06.841Z,53.78
